createdAt,value
2018-09-01T00:00:33.934Z,86.50
2018-09-01T00:03:02.909Z,86.70
2018-09-01T00:05:31.916Z,86.80
2018-09-01T00:08:00.908Z,86.60
2018-09-01T00:10:29.924Z,86.30
2018-09-01T00:12:58.980Z,86.30
2018-09-01T00:15:28.009Z,86.50
2018-09-01T00:17:57.263Z,86.60
2018-09-01T00:20:26.221Z,86.20
2018-09-01T00:22:55.206Z,86.40
2018-09-01T00:25:24.230Z,86.20
2018-09-01T00:27:53.225Z,86.30
2018-09-01T00:30:22.259Z,86.60
2018-09-01T00:32:51.268Z,86.40
2018-09-01T00:35:20.259Z,86.50
2018-09-01T00:37:54.407Z,86.60
2018-09-01T00:40:26.573Z,86.50
2018-09-01T00:42:57.303Z,86.90
2018-09-01T00:45:26.659Z,87.80
2018-09-01T00:47:55.744Z,87.80
2018-09-01T00:50:25.187Z,87.70
2018-09-01T00:52:54.188Z,87.90
2018-09-01T00:55:28.725Z,87.60
2018-09-01T00:57:58.039Z,87.90
2018-09-01T01:00:26.981Z,88.20
2018-09-01T01:02:55.960Z,88.60
2018-09-01T01:05:24.983Z,88.90
2018-09-01T01:07:53.961Z,89.40
2018-09-01T01:10:22.973Z,89.70
2018-09-01T01:12:51.983Z,90.00
2018-09-01T01:15:20.980Z,89.80
2018-09-01T01:17:50.144Z,89.50
2018-09-01T01:20:19.200Z,89.40
2018-09-01T01:22:48.144Z,88.70
2018-09-01T01:25:17.188Z,89.30
2018-09-01T01:27:46.525Z,89.30
2018-09-01T01:30:15.478Z,88.30
2018-09-01T01:32:44.542Z,88.10
2018-09-01T01:35:13.584Z,88.60
2018-09-01T01:37:42.657Z,88.70
2018-09-01T01:40:11.652Z,88.70
2018-09-01T01:42:40.892Z,88.70
2018-09-01T01:45:10.039Z,88.70
2018-09-01T01:47:40.708Z,88.90
2018-09-01T01:50:10.948Z,88.60
2018-09-01T01:52:39.955Z,88.70
2018-09-01T01:55:08.948Z,88.70
2018-09-01T01:57:43.248Z,89.30
2018-09-01T02:00:12.220Z,90.00
2018-09-01T02:02:41.187Z,90.30
2018-09-01T02:05:14.460Z,90.50
2018-09-01T02:07:43.458Z,90.20
2018-09-01T02:10:12.748Z,90.50
2018-09-01T02:12:41.751Z,90.60
2018-09-01T02:15:10.761Z,90.40
2018-09-01T02:17:39.721Z,90.40
2018-09-01T02:20:08.706Z,90.60
2018-09-01T02:22:37.703Z,90.70
2018-09-01T02:25:06.717Z,90.80
2018-09-01T02:27:35.792Z,91.20
2018-09-01T02:30:05.071Z,91.10
2018-09-01T02:32:34.035Z,91.00
2018-09-01T02:35:03.017Z,91.00
2018-09-01T02:37:32.032Z,90.90
2018-09-01T02:40:00.996Z,90.90
2018-09-01T02:42:30.328Z,90.90
2018-09-01T02:44:59.316Z,90.70
2018-09-01T02:47:28.327Z,90.70
2018-09-01T02:49:57.343Z,90.90
2018-09-01T02:52:26.320Z,90.80
2018-09-01T02:54:55.289Z,90.90
2018-09-01T02:57:24.280Z,90.90
2018-09-01T02:59:53.286Z,90.80
2018-09-01T03:02:27.727Z,90.90
2018-09-01T03:04:56.832Z,91.00
2018-09-01T03:07:26.224Z,90.90
2018-09-01T03:09:55.252Z,91.10
2018-09-01T03:12:24.234Z,90.80
2018-09-01T03:14:53.296Z,90.70
2018-09-01T03:17:22.251Z,91.00
2018-09-01T03:19:51.305Z,90.90
2018-09-01T03:22:20.280Z,90.80
2018-09-01T03:24:49.304Z,90.40
2018-09-01T03:27:18.404Z,90.40
2018-09-01T03:29:47.380Z,90.40
2018-09-01T03:32:16.342Z,90.50
2018-09-01T03:34:45.364Z,90.70
2018-09-01T03:37:14.691Z,90.40
2018-09-01T03:39:43.680Z,90.20
2018-09-01T03:42:12.720Z,89.60
2018-09-01T03:44:41.760Z,89.80
2018-09-01T03:47:11.064Z,90.10
2018-09-01T03:49:40.093Z,90.60
2018-09-01T03:52:09.056Z,90.50
2018-09-01T03:54:38.040Z,90.40
2018-09-01T03:57:07.024Z,90.30
2018-09-01T03:59:36.033Z,90.50
2018-09-01T04:02:05.315Z,90.50
2018-09-01T04:04:34.279Z,90.70
2018-09-01T04:07:03.264Z,90.60
2018-09-01T04:09:32.249Z,90.80
2018-09-01T04:12:01.506Z,91.30
2018-09-01T04:14:30.507Z,91.40
2018-09-01T04:16:59.558Z,91.30
2018-09-01T04:19:28.570Z,91.20
2018-09-01T04:21:57.584Z,91.30
2018-09-01T04:24:26.574Z,91.30
2018-09-01T04:26:55.559Z,91.30
2018-09-01T04:29:24.578Z,91.20
2018-09-01T04:31:53.631Z,91.00
2018-09-01T04:34:22.636Z,90.70
2018-09-01T04:36:51.657Z,90.80
2018-09-01T04:39:20.655Z,90.90
2018-09-01T04:41:49.622Z,91.00
2018-09-01T04:44:18.605Z,91.20
2018-09-01T04:46:47.649Z,91.10
2018-09-01T04:49:16.664Z,91.20
2018-09-01T04:51:45.636Z,91.10
2018-09-01T04:54:14.695Z,91.10
2018-09-01T04:56:43.696Z,91.10
2018-09-01T04:59:12.712Z,91.10
2018-09-01T05:01:41.883Z,91.20
2018-09-01T05:04:10.891Z,91.30
2018-09-01T05:06:39.892Z,91.20
2018-09-01T05:09:08.923Z,91.10
2018-09-01T05:11:37.939Z,90.90
2018-09-01T05:14:06.904Z,90.90
2018-09-01T05:16:35.963Z,91.00
2018-09-01T05:19:04.983Z,91.10
2018-09-01T05:21:33.998Z,91.00
2018-09-01T05:24:03.001Z,91.00
2018-09-01T05:26:31.988Z,91.10
2018-09-01T05:29:01.050Z,91.20
2018-09-01T05:31:30.101Z,91.20
2018-09-01T05:33:59.136Z,90.90
2018-09-01T05:36:28.170Z,90.60
2018-09-01T05:38:57.136Z,90.70
2018-09-01T05:41:26.088Z,90.60
2018-09-01T05:43:55.398Z,90.50
2018-09-01T05:46:24.382Z,90.50
2018-09-01T05:48:53.355Z,90.60
2018-09-01T05:51:22.385Z,90.40
2018-09-01T05:53:51.365Z,90.30
2018-09-01T05:56:20.437Z,90.20
2018-09-01T05:58:49.388Z,90.10
2018-09-01T06:01:18.664Z,90.10
2018-09-01T06:03:47.703Z,89.50
2018-09-01T06:06:16.741Z,89.20
2018-09-01T06:08:45.784Z,89.50
2018-09-01T06:11:14.881Z,88.90
2018-09-01T06:13:44.153Z,89.00
2018-09-01T06:16:13.135Z,89.70
2018-09-01T06:18:42.138Z,89.70
2018-09-01T06:21:11.157Z,89.30
2018-09-01T06:23:40.152Z,89.10
2018-09-01T06:28:52.102Z,88.80
2018-09-01T06:31:21.721Z,88.70
2018-09-01T06:33:51.049Z,88.80
2018-09-01T06:36:20.172Z,88.40
2018-09-01T06:38:49.211Z,88.90
2018-09-01T06:41:18.268Z,88.90
2018-09-01T06:43:47.239Z,88.20
2018-09-01T06:46:16.624Z,88.30
2018-09-01T06:48:45.650Z,87.90
2018-09-01T06:51:14.703Z,87.20
2018-09-01T06:53:43.744Z,87.90
2018-09-01T06:56:12.874Z,87.70
2018-09-01T06:58:41.878Z,86.70
2018-09-01T07:01:11.393Z,86.90
2018-09-01T07:03:41.258Z,86.60
2018-09-01T07:06:10.282Z,86.10
2018-09-01T07:08:39.459Z,86.00
2018-09-01T07:11:08.719Z,86.90
2018-09-01T07:13:37.757Z,87.00
2018-09-01T07:16:06.777Z,86.50
2018-09-01T07:18:35.793Z,86.50
2018-09-01T07:21:04.856Z,85.20
2018-09-01T07:23:33.835Z,81.80
2018-09-01T07:26:02.877Z,76.50
2018-09-01T07:28:31.913Z,70.80
2018-09-01T07:31:01.356Z,66.50
2018-09-01T07:33:29.960Z,61.90
2018-09-01T07:35:58.932Z,62.10
2018-09-01T07:38:27.920Z,60.90
2018-09-01T07:40:56.928Z,60.80
2018-09-01T07:43:25.900Z,60.50
2018-09-01T07:45:54.915Z,58.50
2018-09-01T07:48:23.929Z,59.00
2018-09-01T07:50:53.351Z,56.80
2018-09-01T07:53:22.434Z,56.10
2018-09-01T07:55:51.416Z,53.40
2018-09-01T07:58:20.579Z,54.50
2018-09-01T08:00:49.632Z,55.70
2018-09-01T08:03:18.622Z,56.70
2018-09-01T08:05:47.685Z,55.10
2018-09-01T08:08:16.657Z,54.80
2018-09-01T08:10:45.684Z,54.50
2018-09-01T08:13:15.043Z,51.70
2018-09-01T08:15:44.154Z,50.40
2018-09-01T08:18:13.365Z,53.40
2018-09-01T08:20:42.884Z,55.00
2018-09-01T08:23:11.942Z,51.60
2018-09-01T08:25:41.048Z,51.70
2018-09-01T08:28:10.084Z,49.00
2018-09-01T08:30:39.140Z,50.90
2018-09-01T08:33:08.161Z,49.40
2018-09-01T08:35:37.177Z,45.90
2018-09-01T08:38:06.203Z,41.50
2018-09-01T08:40:35.197Z,41.60
2018-09-01T08:43:04.311Z,41.40
2018-09-01T08:45:33.358Z,41.50
2018-09-01T08:48:02.348Z,42.60
2018-09-01T08:50:31.364Z,44.60
2018-09-01T08:53:00.476Z,46.00
2018-09-01T08:55:29.488Z,47.40
2018-09-01T08:57:58.515Z,46.50
2018-09-01T09:00:27.529Z,46.70
2018-09-01T09:02:56.535Z,45.10
2018-09-01T09:05:25.595Z,44.90
2018-09-01T09:07:54.528Z,46.40
2018-09-01T09:10:23.589Z,46.10
2018-09-01T09:12:52.568Z,42.80
2018-09-01T09:15:21.652Z,37.90
2018-09-01T09:17:50.675Z,37.30
2018-09-01T09:20:19.631Z,35.00
2018-09-01T09:22:48.664Z,36.40
2018-09-01T09:25:17.641Z,34.40
2018-09-01T09:27:46.779Z,32.30
2018-09-01T09:30:15.751Z,36.10
2018-09-01T09:32:44.753Z,37.20
2018-09-01T09:35:13.912Z,36.20
2018-09-01T09:37:42.961Z,37.00
2018-09-01T09:40:11.963Z,38.20
2018-09-01T09:42:40.989Z,36.10
2018-09-01T09:45:10.064Z,36.50
2018-09-01T09:47:39.099Z,37.60
2018-09-01T09:50:08.114Z,35.90
2018-09-01T09:52:37.110Z,32.60
2018-09-01T09:55:06.148Z,32.90
2018-09-01T09:57:35.195Z,32.60
2018-09-01T10:00:04.690Z,31.40
2018-09-01T10:02:33.668Z,31.30
2018-09-01T10:05:02.849Z,31.00
2018-09-01T10:07:31.835Z,31.30
2018-09-01T10:10:00.854Z,29.50
2018-09-01T10:12:29.881Z,30.10
2018-09-01T10:14:58.857Z,30.00
2018-09-01T10:17:27.875Z,29.30
2018-09-01T10:19:56.885Z,30.00
2018-09-01T10:22:25.869Z,30.00
2018-09-01T10:24:55.058Z,29.80
2018-09-01T10:27:24.037Z,29.30
2018-09-01T10:29:53.029Z,29.20
2018-09-01T10:32:22.029Z,30.00
2018-09-01T10:34:51.092Z,30.50
2018-09-01T10:37:20.016Z,31.00
2018-09-01T10:39:49.044Z,29.40
2018-09-01T10:42:18.028Z,29.40
2018-09-01T10:44:47.041Z,31.60
2018-09-01T10:47:16.029Z,31.50
2018-09-01T10:49:45.061Z,33.00
2018-09-01T10:52:14.284Z,33.40
2018-09-01T10:54:43.346Z,33.40
2018-09-01T10:57:12.406Z,31.70
2018-09-01T10:59:41.524Z,30.70
2018-09-01T11:02:10.480Z,31.80
2018-09-01T11:04:39.456Z,33.20
2018-09-01T11:07:08.480Z,33.80
2018-09-01T11:09:44.343Z,33.00
2018-09-01T11:12:13.655Z,34.20
2018-09-01T11:14:42.664Z,36.60
2018-09-01T11:17:11.904Z,36.90
2018-09-01T11:19:40.918Z,34.30
2018-09-01T11:22:09.997Z,33.10
2018-09-01T11:24:39.001Z,35.10
2018-09-01T11:27:08.031Z,36.10
2018-09-01T11:29:37.036Z,36.70
2018-09-01T11:32:06.260Z,36.60
2018-09-01T11:34:35.315Z,36.90
2018-09-01T11:37:04.303Z,38.10
2018-09-01T11:39:33.333Z,38.10
2018-09-01T11:42:02.347Z,38.40
2018-09-01T11:44:31.354Z,40.00
2018-09-01T11:47:00.369Z,38.60
2018-09-01T11:49:29.366Z,38.50
2018-09-01T11:51:58.386Z,39.20
2018-09-01T11:54:27.361Z,40.70
2018-09-01T11:56:56.783Z,40.20
2018-09-01T11:59:25.807Z,39.40
2018-09-01T12:01:54.787Z,39.20
2018-09-01T12:04:24.240Z,39.20
2018-09-01T12:06:53.252Z,40.00
2018-09-01T12:09:22.253Z,40.20
2018-09-01T12:11:51.568Z,38.40
2018-09-01T12:14:20.493Z,37.00
2018-09-01T12:16:49.447Z,36.20
2018-09-01T12:19:18.865Z,34.80
2018-09-01T12:21:48.064Z,35.30
2018-09-01T12:24:17.056Z,35.00
2018-09-01T12:26:46.306Z,35.40
2018-09-01T12:29:15.380Z,35.00
2018-09-01T12:31:44.368Z,34.80
2018-09-01T12:34:13.425Z,34.40
2018-09-01T12:36:42.436Z,34.90
2018-09-01T12:39:11.524Z,35.80
2018-09-01T12:41:40.526Z,35.70
2018-09-01T12:44:09.544Z,34.70
2018-09-01T12:46:38.863Z,34.40
2018-09-01T12:49:07.854Z,34.80
2018-09-01T12:51:36.812Z,34.80
2018-09-01T12:54:05.853Z,35.40
2018-09-01T12:56:34.872Z,35.80
2018-09-01T12:59:04.346Z,34.90
2018-09-01T13:01:33.527Z,34.60
2018-09-01T13:04:02.571Z,34.70
2018-09-01T13:06:31.611Z,34.80
2018-09-01T13:09:00.633Z,34.50
2018-09-01T13:11:29.641Z,34.80
2018-09-01T13:13:58.691Z,35.00
2018-09-01T13:16:27.640Z,35.10
2018-09-01T13:18:56.666Z,34.50
2018-09-01T13:21:25.644Z,33.60
2018-09-01T13:23:54.743Z,32.90
2018-09-01T13:26:23.795Z,34.10
2018-09-01T13:28:52.777Z,35.00
2018-09-01T13:31:21.859Z,35.80
2018-09-01T13:33:50.852Z,36.10
2018-09-01T13:36:20.105Z,35.20
2018-09-01T13:38:49.103Z,36.20
2018-09-01T13:41:18.099Z,35.40
2018-09-01T13:43:47.119Z,35.70
2018-09-01T13:46:16.439Z,35.20
2018-09-01T13:48:45.536Z,35.60
2018-09-01T13:51:14.544Z,35.30
2018-09-01T13:53:43.591Z,34.80
2018-09-01T13:56:12.607Z,34.90
2018-09-01T13:58:41.644Z,34.70
2018-09-01T14:01:11.113Z,34.40
2018-09-01T14:03:40.084Z,35.50
2018-09-01T14:06:09.064Z,34.60
2018-09-01T14:08:38.063Z,34.60
2018-09-01T14:11:07.165Z,35.20
2018-09-01T14:13:36.174Z,34.60
2018-09-01T14:16:05.174Z,34.50
2018-09-01T14:18:34.228Z,34.00
2018-09-01T14:21:03.237Z,34.10
2018-09-01T14:23:32.203Z,33.80
2018-09-01T14:26:01.282Z,33.30
2018-09-01T14:28:30.329Z,33.90
2018-09-01T14:30:59.316Z,34.80
2018-09-01T14:33:28.402Z,35.10
2018-09-01T14:35:57.407Z,36.20
2018-09-01T14:38:26.445Z,36.40
2018-09-01T14:40:55.531Z,36.00
2018-09-01T14:43:24.535Z,36.30
2018-09-01T14:45:53.489Z,36.50
2018-09-01T14:48:22.571Z,35.40
2018-09-01T14:50:51.494Z,35.00
2018-09-01T14:53:20.568Z,35.90
2018-09-01T14:55:49.852Z,35.40
2018-09-01T14:58:18.836Z,35.00
2018-09-01T15:00:47.837Z,34.60
2018-09-01T15:03:16.863Z,33.90
2018-09-01T15:05:45.852Z,34.90
2018-09-01T15:08:14.917Z,35.40
2018-09-01T15:10:44.017Z,36.00
2018-09-01T15:13:13.022Z,36.40
2018-09-01T15:15:42.360Z,35.50
2018-09-01T15:18:11.399Z,36.40
2018-09-01T15:20:55.796Z,36.60
2018-09-01T15:23:25.122Z,36.00
2018-09-01T15:25:54.234Z,36.60
2018-09-01T15:28:23.315Z,37.70
2018-09-01T15:30:52.332Z,37.90
2018-09-01T15:33:21.316Z,38.30
2018-09-01T15:35:50.655Z,39.10
2018-09-01T15:38:19.651Z,39.60
2018-09-01T15:40:48.736Z,39.70
2018-09-01T15:43:17.775Z,39.30
2018-09-01T15:45:46.751Z,39.10
2018-09-01T15:48:15.820Z,39.00
2018-09-01T15:50:44.847Z,38.40
2018-09-01T15:53:14.212Z,38.20
2018-09-01T15:55:43.219Z,38.50
2018-09-01T15:58:12.208Z,38.30
2018-09-01T16:00:41.276Z,39.00
2018-09-01T16:03:10.303Z,38.80
2018-09-01T16:05:39.278Z,38.80
2018-09-01T16:08:08.556Z,39.10
2018-09-01T16:10:37.547Z,39.70
2018-09-01T16:13:06.563Z,39.30
2018-09-01T16:15:35.576Z,39.50
2018-09-01T16:18:04.660Z,39.90
2018-09-01T16:20:33.661Z,40.10
2018-09-01T16:23:02.668Z,40.40
2018-09-01T16:25:31.651Z,40.20
2018-09-01T16:28:00.718Z,40.20
2018-09-01T16:30:29.803Z,40.40
2018-09-01T16:32:58.834Z,40.50
2018-09-01T16:35:27.860Z,41.00
2018-09-01T16:37:56.871Z,40.40
2018-09-01T16:40:25.880Z,40.50
2018-09-01T16:42:54.875Z,41.00
2018-09-01T16:45:23.913Z,41.10
2018-09-01T16:47:52.983Z,41.50
2018-09-01T16:50:21.972Z,41.30
2018-09-01T16:52:50.972Z,41.60
2018-09-01T16:55:20.013Z,42.20
2018-09-01T16:57:49.042Z,42.40
2018-09-01T17:00:18.063Z,42.80
2018-09-01T17:02:47.119Z,42.60
2018-09-01T17:05:16.156Z,42.90
2018-09-01T17:07:45.161Z,43.10
2018-09-01T17:10:14.200Z,43.10
2018-09-01T17:12:43.212Z,43.80
2018-09-01T17:15:12.234Z,44.30
2018-09-01T17:17:41.244Z,44.80
2018-09-01T17:20:10.271Z,44.90
2018-09-01T17:22:39.277Z,45.20
2018-09-01T17:25:08.350Z,45.50
2018-09-01T17:27:37.399Z,45.60
2018-09-01T17:30:06.775Z,45.70
2018-09-01T17:32:35.776Z,45.90
2018-09-01T17:35:04.848Z,46.10
2018-09-01T17:37:33.904Z,46.10
2018-09-01T17:40:02.899Z,46.60
2018-09-01T17:42:31.940Z,46.60
2018-09-01T17:45:00.916Z,46.70
2018-09-01T17:47:29.928Z,46.80
2018-09-01T17:49:58.946Z,47.10
2018-09-01T17:52:27.980Z,47.20
2018-09-01T17:54:57.075Z,47.80
2018-09-01T17:57:26.231Z,48.10
2018-09-01T17:59:55.271Z,48.10
2018-09-01T18:02:24.381Z,48.50
2018-09-01T18:04:53.455Z,48.60
2018-09-01T18:07:22.447Z,49.10
2018-09-01T18:09:51.737Z,49.30
2018-09-01T18:12:20.745Z,49.60
2018-09-01T18:14:49.851Z,49.90
2018-09-01T18:17:18.925Z,50.30
2018-09-01T18:19:47.920Z,50.80
2018-09-01T18:22:16.980Z,50.80
2018-09-01T18:24:46.127Z,51.20
2018-09-01T18:27:15.385Z,51.60
2018-09-01T18:29:44.416Z,51.70
2018-09-01T18:32:13.456Z,52.40
2018-09-01T18:34:42.804Z,52.30
2018-09-01T18:37:11.946Z,52.50
2018-09-01T18:39:41.243Z,53.00
2018-09-01T18:42:10.332Z,53.30
2018-09-01T18:44:39.380Z,53.90
2018-09-01T18:47:08.603Z,53.80
2018-09-01T18:49:37.732Z,54.10
2018-09-01T18:52:06.755Z,54.40
2018-09-01T18:54:35.802Z,55.00
2018-09-01T18:57:04.892Z,55.40
2018-09-01T18:59:33.953Z,55.70
2018-09-01T19:02:03.036Z,56.50
2018-09-01T19:04:32.676Z,56.70
2018-09-01T19:07:01.798Z,57.10
2018-09-01T19:09:30.804Z,57.30
2018-09-01T19:11:59.803Z,57.40
2018-09-01T19:14:28.828Z,57.70
2018-09-01T19:16:57.852Z,57.80
2018-09-01T19:19:26.892Z,58.20
2018-09-01T19:21:55.960Z,58.90
2018-09-01T19:24:24.984Z,59.20
2018-09-01T19:26:54.010Z,59.00
2018-09-01T19:29:23.032Z,59.40
2018-09-01T19:31:52.107Z,59.60
2018-09-01T19:34:21.108Z,59.90
2018-09-01T19:36:50.094Z,60.20
2018-09-01T19:39:19.146Z,60.70
2018-09-01T19:41:48.163Z,61.50
2018-09-01T19:44:17.271Z,62.50
2018-09-01T19:46:46.304Z,64.10
2018-09-01T19:49:15.345Z,64.50
2018-09-01T19:51:44.691Z,65.20
2018-09-01T19:54:13.710Z,65.90
2018-09-01T19:56:42.777Z,66.10
2018-09-01T19:59:11.839Z,66.00
2018-09-01T20:01:40.834Z,66.40
2018-09-01T20:04:09.889Z,66.40
2018-09-01T20:06:38.868Z,66.60
2018-09-01T20:09:07.921Z,66.70
2018-09-01T20:11:36.972Z,67.00
2018-09-01T20:14:06.083Z,66.90
2018-09-01T20:16:35.050Z,67.30
2018-09-01T20:19:04.039Z,67.60
2018-09-01T20:21:33.110Z,67.10
2018-09-01T20:24:02.107Z,68.30
2018-09-01T20:26:31.116Z,69.20
2018-09-01T20:29:00.099Z,69.40
2018-09-01T20:31:29.084Z,69.80
2018-09-01T20:33:58.097Z,70.40
2018-09-01T20:36:27.088Z,70.70
2018-09-01T20:38:56.095Z,71.00
2018-09-01T20:41:25.126Z,71.80
2018-09-01T20:43:54.063Z,72.20
2018-09-01T20:46:23.057Z,72.80
2018-09-01T20:48:53.027Z,73.20
2018-09-01T20:51:22.081Z,73.50
2018-09-01T20:53:51.077Z,73.20
2018-09-01T20:56:20.117Z,73.40
2018-09-01T20:58:49.159Z,73.70
2018-09-01T21:01:18.237Z,72.70
2018-09-01T21:03:47.223Z,72.00
2018-09-01T21:06:16.217Z,71.90
2018-09-01T21:08:45.213Z,71.50
2018-09-01T21:11:14.204Z,71.50
2018-09-01T21:13:43.238Z,71.70
2018-09-01T21:16:12.233Z,72.10
2018-09-01T21:18:41.351Z,72.60
2018-09-01T21:21:10.364Z,72.80
2018-09-01T21:23:39.455Z,73.50
2018-09-01T21:26:08.433Z,73.70
2018-09-01T21:28:37.457Z,74.40
2018-09-01T21:31:06.485Z,74.40
2018-09-01T21:33:35.568Z,74.20
2018-09-01T21:36:04.566Z,73.70
2018-09-01T21:38:33.544Z,74.00
2018-09-01T21:41:02.536Z,74.10
2018-09-01T21:43:31.546Z,73.90
2018-09-01T21:46:00.559Z,73.70
2018-09-01T21:48:29.569Z,73.50
2018-09-01T21:50:58.536Z,73.30
2018-09-01T21:53:27.498Z,73.80
2018-09-01T21:55:56.639Z,73.50
2018-09-01T21:58:25.625Z,73.50
2018-09-01T22:00:58.968Z,73.40
2018-09-01T22:03:27.908Z,73.30
2018-09-01T22:05:56.940Z,73.80
2018-09-01T22:08:25.956Z,74.10
2018-09-01T22:10:54.976Z,74.20
2018-09-01T22:13:23.959Z,74.30
2018-09-01T22:15:52.967Z,74.40
2018-09-01T22:18:21.949Z,74.50
2018-09-01T22:20:51.197Z,74.70
2018-09-01T22:23:20.190Z,74.60
2018-09-01T22:25:49.159Z,75.10
2018-09-01T22:28:18.147Z,74.80
2018-09-01T22:30:47.103Z,74.90
2018-09-01T22:33:16.365Z,75.10
2018-09-01T22:35:45.562Z,74.80
2018-09-01T22:38:14.532Z,75.00
2018-09-01T22:40:43.545Z,75.20
2018-09-01T22:43:12.504Z,76.20
2018-09-01T22:45:41.521Z,76.00
2018-09-01T22:48:10.474Z,75.80
2018-09-01T22:50:39.472Z,76.70
2018-09-01T22:53:08.496Z,76.30
2018-09-01T22:55:37.499Z,76.70
2018-09-01T22:58:06.641Z,76.70
2018-09-01T23:00:35.598Z,76.80
2018-09-01T23:03:04.631Z,76.50
2018-09-01T23:05:33.722Z,76.60
2018-09-01T23:08:02.725Z,76.00
2018-09-01T23:10:31.798Z,76.20
2018-09-01T23:13:00.812Z,76.40
2018-09-01T23:15:29.879Z,76.10
2018-09-01T23:18:05.245Z,76.30
2018-09-01T23:20:34.241Z,76.20
2018-09-01T23:23:03.468Z,76.10
2018-09-01T23:25:32.487Z,76.90
2018-09-01T23:28:01.485Z,76.20
2018-09-01T23:30:30.517Z,77.10
2018-09-01T23:32:59.496Z,77.40
2018-09-01T23:35:28.589Z,77.30
2018-09-01T23:37:57.597Z,77.70
2018-09-01T23:40:26.577Z,78.10
2018-09-01T23:42:55.555Z,77.40
2018-09-01T23:45:24.544Z,77.60
2018-09-01T23:47:53.625Z,78.00
2018-09-01T23:50:22.617Z,78.20
2018-09-01T23:52:51.604Z,79.30
2018-09-01T23:55:20.662Z,79.70
2018-09-01T23:57:49.641Z,79.20
